Saint Anne/Alderney Island, United Kingdom
Current Conditions -  °F | °C
As of 7:20 PM on Thursday 18 Dec 2014 (Local Time) from EGJA Reporting Station
Drizzle Drizzle  
Wind Chill: 54°   Ceiling: 400
Heat Index: 54°   Visibility: 5mi
Dew Point: 52°   Wind: 22mph
Humidity: 94%   Direction: 240°WSW
Pressure: 30.06"   Gusts: 38mph
Location:  49.67°N, 2.17°W
Report Text: EGJA 181820Z 24019G33KT 210V320 8000 -DZ BKN004 12/11 Q1018
Loading
Personal Weather Stations






























Interactive Weather Map New forecast layout! Learn more

10-Day Weather Forecast

Advertisements
Track Severe Weather on mobile